PWSweather.com
Personal Weather Stations
Station Observations
CAMPIGIANO
Campi Bisenzio, FirenzeIT

Campi BisenzioFirenzeIT

Lat: 43.8175012, Lon: 11.1391085

Elevation: 106

Station Type: LaCrosse WS2350

Latest ConditionsUpdated 1:45:01 PM GMT+01:01 Saturday, Jul 30, 2016
Currently Today's Max Today's Min Today's Average
Temperature 91.8°F33.2°C 92.1°F33.4°C 68.4°F20.2°C 78.9°F26.1°C
Dew Point 66.7°F19.3°C 69.4°F20.8°C 61.9°F16.6°C 65.6°F18.7°C
Winds 1.2 mph NNW1.9 kmh NNW 2.3 mph E3.7 kmh E - 0.2 mph 0.3 kmh
Wind Gusts 1.2 mph1.9 kmh 2.3 mph3.7 kmh - -
Humidity 44% 80% 44% 65%
Pressure 29.92 in1013.2 mb 29.96 in1014.6 mb 29.92 in1013.2 mb -
Hour Temp Dew Point Humidity Winds Wind Gusts Pressure Precip Precip Rate Daily Precip Total
01:45 PM 91.8°F33.2°C 66.7°F19.3°C 44% 1.2 mph NNW1.9 kmh NNW 1.2 mph1.9 kmh 29.92 in1013.2 mb - 0.00 in0.0 mm 0.00 in0.0 mm
01:30 PM 92.1°F33.4°C 67.7°F19.8°C 45% 2.3 mph E3.7 kmh E 2.3 mph3.7 kmh 29.92 in1013.2 mb - 0.00 in0.0 mm 0.00 in0.0 mm
01:15 PM 91.8°F33.2°C 68.0°F20.0°C 46% Calm Calm -- 29.93 in1013.5 mb - 0.00 in0.0 mm 0.00 in0.0 mm
01:00 PM 91.2°F32.9°C 68.8°F20.4°C 48% Calm Calm -- 29.93 in1013.5 mb - 0.00 in0.0 mm 0.00 in0.0 mm
12:45 PM 91.2°F32.9°C 69.4°F20.8°C 49% Calm Calm -- 29.93 in1013.5 mb - 0.00 in0.0 mm 0.00 in0.0 mm
12:30 PM 91.2°F32.9°C 69.4°F20.8°C 49% 1.2 mph S1.9 kmh S 1.2 mph1.9 kmh 29.93 in1013.5 mb - 0.00 in0.0 mm 0.00 in0.0 mm
12:15 PM 91.0°F32.8°C 69.2°F20.7°C 49% Calm Calm -- 29.93 in1013.5 mb - 0.00 in0.0 mm 0.00 in0.0 mm
12:00 PM 90.5°F32.5°C 69.3°F20.7°C 50% 1.2 mph SSE1.9 kmh SSE 2.3 mph3.7 kmh 29.93 in1013.5 mb - 0.00 in0.0 mm 0.00 in0.0 mm
11:45 AM 89.7°F32.1°C 69.1°F20.6°C 51% 1.2 mph NNE1.9 kmh NNE -- 29.93 in1013.5 mb - 0.00 in0.0 mm 0.00 in0.0 mm
11:30 AM 89.1°F31.7°C 68.6°F20.3°C 51% Calm Calm -- 29.94 in1013.9 mb - 0.00 in0.0 mm 0.00 in0.0 mm
11:15 AM 88.9°F31.6°C 68.4°F20.2°C 51% Calm Calm -- 29.94 in1013.9 mb - 0.00 in0.0 mm 0.00 in0.0 mm
11:00 AM 89.1°F31.7°C 68.6°F20.3°C 51% 1.2 mph N1.9 kmh N 1.2 mph1.9 kmh 29.94 in1013.9 mb - 0.00 in0.0 mm 0.00 in0.0 mm
10:45 AM 88.9°F31.6°C 68.4°F20.2°C 51% Calm Calm -- 29.95 in1014.2 mb - 0.00 in0.0 mm 0.00 in0.0 mm
10:30 AM 87.2°F30.7°C 68.0°F20.0°C 53% Calm Calm -- 29.94 in1013.9 mb - 0.00 in0.0 mm 0.00 in0.0 mm
10:15 AM 85.8°F29.9°C 68.3°F20.2°C 56% 1.2 mph SSW1.9 kmh SSW 1.2 mph1.9 kmh 29.95 in1014.2 mb - 0.00 in0.0 mm 0.00 in0.0 mm
10:00 AM 84.9°F29.4°C 68.0°F20.0°C 57% Calm Calm -- 29.95 in1014.2 mb - 0.00 in0.0 mm 0.00 in0.0 mm
09:45 AM 85.3°F29.6°C 68.3°F20.2°C 57% Calm Calm -- 29.95 in1014.2 mb - 0.00 in0.0 mm 0.00 in0.0 mm
09:30 AM 84.3°F29.1°C 68.0°F20.0°C 58% Calm Calm -- 29.95 in1014.2 mb - 0.00 in0.0 mm 0.00 in0.0 mm
09:15 AM 82.2°F27.9°C 66.9°F19.4°C 60% 1.2 mph NE1.9 kmh NE 1.2 mph1.9 kmh 29.95 in1014.2 mb - 0.00 in0.0 mm 0.00 in0.0 mm
09:00 AM 83.7°F28.7°C 68.3°F20.2°C 60% Calm Calm -- 29.95 in1014.2 mb - 0.00 in0.0 mm 0.00 in0.0 mm
08:45 AM 82.6°F28.1°C 68.2°F20.1°C 62% Calm Calm -- 29.95 in1014.2 mb - 0.00 in0.0 mm 0.00 in0.0 mm
08:30 AM 80.8°F27.1°C 67.0°F19.4°C 63% Calm Calm -- 29.96 in1014.6 mb - 0.00 in0.0 mm 0.00 in0.0 mm
08:15 AM 81.0°F27.2°C 67.6°F19.8°C 64% Calm Calm -- 29.95 in1014.2 mb - 0.00 in0.0 mm 0.00 in0.0 mm
08:00 AM 80.8°F27.1°C 67.9°F19.9°C 65% Calm Calm -- 29.95 in1014.2 mb - 0.00 in0.0 mm 0.00 in0.0 mm
07:45 AM 78.4°F25.8°C 66.1°F18.9°C 66% Calm Calm -- 29.95 in1014.2 mb - 0.00 in0.0 mm 0.00 in0.0 mm
07:30 AM 77.5°F25.3°C 66.1°F18.9°C 68% Calm Calm -- 29.95 in1014.2 mb - 0.00 in0.0 mm 0.00 in0.0 mm
07:15 AM 77.3°F25.2°C 65.9°F18.8°C 68% 1.2 mph S1.9 kmh S 2.3 mph3.7 kmh 29.95 in1014.2 mb - 0.00 in0.0 mm 0.00 in0.0 mm
07:00 AM 77.2°F25.1°C 66.2°F19.0°C 69% Calm Calm -- 29.95 in1014.2 mb - 0.00 in0.0 mm 0.00 in0.0 mm
06:45 AM 75.0°F23.9°C 65.8°F18.8°C 73% Calm Calm -- 29.95 in1014.2 mb - 0.00 in0.0 mm 0.00 in0.0 mm
06:30 AM 72.4°F22.4°C 64.4°F18.0°C 76% Calm Calm -- 29.95 in1014.2 mb - 0.00 in0.0 mm 0.00 in0.0 mm
06:15 AM 70.3°F21.3°C 63.2°F17.3°C 78% Calm Calm -- 29.96 in1014.6 mb - 0.00 in0.0 mm 0.00 in0.0 mm
06:00 AM 69.6°F20.9°C 63.2°F17.3°C 80% Calm Calm -- 29.95 in1014.2 mb - 0.00 in0.0 mm 0.00 in0.0 mm
05:45 AM 68.7°F20.4°C 62.3°F16.8°C 80% Calm Calm -- 29.95 in1014.2 mb - 0.00 in0.0 mm 0.00 in0.0 mm
05:30 AM 68.4°F20.2°C 61.9°F16.6°C 80% Calm Calm -- 29.95 in1014.2 mb - 0.00 in0.0 mm 0.00 in0.0 mm
05:15 AM 68.5°F20.3°C 62.1°F16.7°C 80% Calm Calm -- 29.95 in1014.2 mb - 0.00 in0.0 mm 0.00 in0.0 mm
05:00 AM 68.7°F20.4°C 62.3°F16.8°C 80% Calm Calm -- 29.95 in1014.2 mb - 0.00 in0.0 mm 0.00 in0.0 mm
04:45 AM 69.1°F20.6°C 62.3°F16.8°C 79% Calm Calm -- 29.94 in1013.9 mb - 0.00 in0.0 mm 0.00 in0.0 mm
04:30 AM 69.4°F20.8°C 62.6°F17.0°C 79% Calm Calm -- 29.94 in1013.9 mb - 0.00 in0.0 mm 0.00 in0.0 mm
04:15 AM 69.8°F21.0°C 62.6°F17.0°C 78% Calm Calm -- 29.95 in1014.2 mb - 0.00 in0.0 mm 0.00 in0.0 mm
04:00 AM 70.0°F21.1°C 62.4°F16.9°C 77% Calm Calm -- 29.95 in1014.2 mb - 0.00 in0.0 mm 0.00 in0.0 mm
03:45 AM 70.0°F21.1°C 62.4°F16.9°C 77% Calm Calm -- 29.95 in1014.2 mb - 0.00 in0.0 mm 0.00 in0.0 mm
03:30 AM 70.3°F21.3°C 62.8°F17.1°C 77% Calm Calm -- 29.95 in1014.2 mb - 0.00 in0.0 mm 0.00 in0.0 mm
03:15 AM 70.9°F21.6°C 62.9°F17.2°C 76% Calm Calm -- 29.95 in1014.2 mb - 0.00 in0.0 mm 0.00 in0.0 mm
03:00 AM 71.3°F21.8°C 63.3°F17.4°C 76% Calm Calm -- 29.95 in1014.2 mb - 0.00 in0.0 mm 0.00 in0.0 mm
02:45 AM 72.1°F22.3°C 63.4°F17.4°C 74% Calm Calm -- 29.95 in1014.2 mb - 0.00 in0.0 mm 0.00 in0.0 mm
02:30 AM 72.3°F22.4°C 62.8°F17.1°C 72% Calm Calm -- 29.95 in1014.2 mb - 0.00 in0.0 mm 0.00 in0.0 mm
02:15 AM 72.5°F22.5°C 63.0°F17.2°C 72% Calm Calm -- 29.95 in1014.2 mb - 0.00 in0.0 mm 0.00 in0.0 mm
02:00 AM 72.9°F22.7°C 62.9°F17.2°C 71% Calm Calm -- 29.95 in1014.2 mb - 0.00 in0.0 mm 0.00 in0.0 mm
01:45 AM 73.0°F22.8°C 63.1°F17.3°C 71% Calm Calm -- 29.95 in1014.2 mb - 0.00 in0.0 mm 0.00 in0.0 mm
01:30 AM 73.4°F23.0°C 63.4°F17.4°C 71% Calm Calm -- 29.95 in1014.2 mb - 0.00 in0.0 mm 0.00 in0.0 mm
01:15 AM 73.9°F23.3°C 63.9°F17.7°C 71% Calm Calm -- 29.95 in1014.2 mb - 0.00 in0.0 mm 0.00 in0.0 mm
01:00 AM 74.5°F23.6°C 64.1°F17.8°C 70% Calm Calm -- 29.94 in1013.9 mb - 0.00 in0.0 mm 0.00 in0.0 mm
12:45 AM 74.8°F23.8°C 64.8°F18.2°C 71% Calm Calm -- 29.94 in1013.9 mb - 0.00 in0.0 mm 0.00 in0.0 mm
12:15 AM 75.6°F24.2°C 64.7°F18.2°C 69% Calm Calm -- 29.94 in1013.9 mb - 0.00 in0.0 mm 0.00 in0.0 mm
12:00 AM 75.6°F24.2°C 64.7°F18.2°C 69% Calm Calm -- 29.95 in1014.2 mb - 0.00 in0.0 mm 0.00 in0.0 mm